Back to Top

Language: 

My Weather Underground Personal Weather Station Historical Data with Graphs...

Delerius Weather Station Historical Data
Daily Summary for July 23, 2017 Units:  Metric    English   Both
« Previous Day
Next Day »
Daily Weekly Monthly Yearly Custom
  High: Low: Average:
Temperature: 20.6 °C 10.5 °C 15.2 °C
Dew Point: 14.1 °C 10 °C 12.3 °C
Humidity: 98 % 58 % 85 %
Wind Speed: 16.1 km/h 0 km/h 7.1 km/h
Wind Gust: 35.4 km/h - -
Wind:- - WNW
Pressure: 1010.4 hPa 1008.4 hPa -
Precipitation: 2.54 mm    
Historical Graphs
 
 
Tabular Data for July 23, 2017
Time Temperature Dew Point Pressure Wind Wind Speed Wind Gust Humidity Rainfall Rate (Hourly) solar Conditions
00:02 12.5 °C 11.7 °C 1008.4 hPa Calm   4.8 km/h 95 % 0 mm 0 W/m2
00:07 12.5 °C 11.9 °C 1008.4 hPa Calm   6.4 km/h 96 % 0 mm 0 W/m2
00:12 12.4 °C 11.6 °C 1008.4 hPa East 1.6 km/h 6.4 km/h 95 % 0 mm 0 W/m2
00:17 12.4 °C 11.8 °C 1008.4 hPa East 1.6 km/h 6.4 km/h 96 % 0 mm 0 W/m2
00:22 12.4 °C 11.8 °C 1008.4 hPa East 1.6 km/h 6.4 km/h 96 % 0 mm 0 W/m2
00:27 12.3 °C 11.7 °C 1008.4 hPa Calm   1.6 km/h 96 % 0 mm 0 W/m2
00:32 12.3 °C 11.7 °C 1008.4 hPa Calm     96 % 0 mm 0 W/m2
00:37 12.3 °C 11.7 °C 1008.4 hPa Calm     96 % 0 mm 0 W/m2
00:42 12.4 °C 11.8 °C 1008.4 hPa Calm     96 % 0 mm 0 W/m2
00:47 12.4 °C 11.8 °C 1008.4 hPa Calm     96 % 0 mm 0 W/m2
00:52 12.3 °C 11.7 °C 1008.4 hPa Calm     96 % 0 mm 0 W/m2
00:57 12.3 °C 11.7 °C 1008.4 hPa Calm     96 % 0 mm 0 W/m2
01:02 12.4 °C 11.8 °C 1008.4 hPa Calm     96 % 0 mm 0 W/m2
01:07 12.5 °C 11.9 °C 1008.7 hPa Calm     96 % 0 mm 0 W/m2
01:12 12.5 °C 11.9 °C 1008.7 hPa Calm     96 % 0 mm 0 W/m2
01:17 12.5 °C 11.9 °C 1008.7 hPa Calm     96 % 0 mm 0 W/m2
01:22 12.5 °C 11.9 °C 1008.7 hPa Calm     96 % 0 mm 0 W/m2
01:27 12.5 °C 11.9 °C 1008.7 hPa Calm     96 % 0 mm 0 W/m2
01:32 12.4 °C 11.8 °C 1008.7 hPa Calm     96 % 0 mm 0 W/m2
01:37 12.4 °C 11.8 °C 1008.7 hPa Calm     96 % 0 mm 0 W/m2
01:42 12.5 °C 11.9 °C 1008.7 hPa Calm     96 % 0 mm 0 W/m2
01:47 12.5 °C 11.9 °C 1008.7 hPa Calm   3.2 km/h 96 % 0 mm 0 W/m2
01:52 12.4 °C 11.8 °C 1008.7 hPa Calm   3.2 km/h 96 % 0 mm 0 W/m2
01:57 12.4 °C 11.8 °C 1008.7 hPa Calm   3.2 km/h 96 % 0 mm 0 W/m2
02:02 12.4 °C 11.8 °C 1008.7 hPa Calm   3.2 km/h 96 % 0 mm 0 W/m2
02:08 12.4 °C 11.8 °C 1008.7 hPa Calm   1.6 km/h 96 % 0 mm 0 W/m2
02:12 12.4 °C 11.8 °C 1008.7 hPa Calm     96 % 0 mm 0 W/m2
02:18 12.4 °C 11.8 °C 1008.7 hPa Calm     96 % 0 mm 0 W/m2
02:23 12.4 °C 11.8 °C 1008.7 hPa Calm   3.2 km/h 96 % 0 mm 0 W/m2
02:28 12.4 °C 11.8 °C 1008.7 hPa Calm   3.2 km/h 96 % 0 mm 0 W/m2
02:33 12.3 °C 11.7 °C 1008.7 hPa Calm   3.2 km/h 96 % 0 mm 0 W/m2
02:38 12.3 °C 11.7 °C 1008.7 hPa Calm   3.2 km/h 96 % 0 mm 0 W/m2
02:43 12.3 °C 11.7 °C 1008.7 hPa Calm   3.2 km/h 96 % 0 mm 0 W/m2
02:48 12.2 °C 11.6 °C 1008.7 hPa Calm     96 % 0 mm 0 W/m2
02:49 12.2 °C 11.6 °C 1008.7 hPa Calm     96 % 0 mm 0 W/m2
02:54 12.2 °C 11.6 °C 1008.7 hPa Calm     96 % 0 mm 0 W/m2
02:57 12.1 °C 11.5 °C 1008.7 hPa Calm     96 % 0 mm 0 W/m2
03:02 12.1 °C 11.5 °C 1008.7 hPa Calm     96 % 0 mm 0 W/m2
03:07 12.1 °C 11.5 °C 1008.7 hPa Calm     96 % 0 mm 0 W/m2
03:12 12.1 °C 11.5 °C 1008.7 hPa Calm     96 % 0 mm 0 W/m2
03:17 12 °C 11.4 °C 1008.7 hPa Calm     96 % 0 mm 0 W/m2
03:22 11.9 °C 11.3 °C 1008.7 hPa Calm     96 % 0 mm 0 W/m2
03:27 11.8 °C 11.2 °C 1008.7 hPa Calm     96 % 0 mm 0 W/m2
03:32 11.8 °C 11.2 °C 1008.7 hPa Calm     96 % 0 mm 0 W/m2
03:37 11.7 °C 11.1 °C 1008.7 hPa Calm     96 % 0 mm 0 W/m2
03:42 11.6 °C 11 °C 1008.4 hPa Calm     96 % 0 mm 0 W/m2
03:47 11.6 °C 11 °C 1008.7 hPa Calm     96 % 0 mm 0 W/m2
03:52 11.6 °C 11 °C 1008.7 hPa Calm     96 % 0 mm 0 W/m2
03:57 11.6 °C 11 °C 1008.4 hPa Calm     96 % 0 mm 0 W/m2
04:02 11.5 °C 10.9 °C 1008.4 hPa Calm     96 % 0 mm 0 W/m2
04:07 11.4 °C 10.8 °C 1008.7 hPa Calm     96 % 0 mm 0 W/m2
04:12 11.4 °C 10.8 °C 1008.7 hPa Calm     96 % 0 mm 0 W/m2
04:17 11.3 °C 10.7 °C 1008.7 hPa Calm     96 % 0 mm 0 W/m2
04:22 11.3 °C 10.7 °C 1008.7 hPa Calm     96 % 0 mm 0 W/m2
04:27 11.2 °C 10.6 °C 1008.7 hPa Calm     96 % 0 mm 0 W/m2
04:32 11 °C 10.4 °C 1008.7 hPa Calm     96 % 0 mm 0 W/m2
04:37 10.9 °C 10.3 °C 1008.7 hPa Calm     96 % 0 mm 0 W/m2
04:42 10.8 °C 10.2 °C 1008.7 hPa Calm     96 % 0 mm 0 W/m2
04:47 10.7 °C 10.1 °C 1008.7 hPa Calm     96 % 0 mm 0 W/m2
04:52 10.6 °C 10 °C 1009 hPa Calm     96 % 0 mm 0 W/m2
04:54 10.6 °C 10 °C 1008.7 hPa Calm     96 % 0 mm 0 W/m2
04:59 10.6 °C 10 °C 1008.7 hPa Calm     96 % 0 mm 0 W/m2
05:04 10.7 °C 10.1 °C 1008.7 hPa Calm     96 % 0 mm 0 W/m2
05:09 10.7 °C 10.2 °C 1009 hPa Calm     97 % 0 mm 0 W/m2
05:14 10.7 °C 10.1 °C 1009 hPa Calm     96 % 0 mm 0 W/m2
05:19 10.6 °C 10 °C 1009 hPa Calm     96 % 0 mm 5 W/m2
05:24 10.6 °C 10 °C 1009 hPa Calm     96 % 0 mm 7 W/m2
05:29 10.6 °C 10 °C 1009 hPa Calm     96 % 0 mm 9 W/m2
05:34 10.6 °C 10 °C 1009 hPa Calm   3.2 km/h 96 % 0 mm 14 W/m2
05:39 10.5 °C 10.1 °C 1009 hPa Calm   3.2 km/h 97 % 0 mm 19 W/m2
05:44 10.5 °C 10.1 °C 1009 hPa Calm     97 % 0 mm 16 W/m2
05:49 10.5 °C 10.1 °C 1009 hPa Calm     97 % 0 mm 12 W/m2
05:54 10.6 °C 10.2 °C 1009 hPa Calm     97 % 0 mm 14 W/m2
05:59 10.6 °C 10.2 °C 1009.4 hPa Calm     97 % 0 mm 21 W/m2
06:04 10.7 °C 10.2 °C 1009.4 hPa Calm     97 % 0 mm 33 W/m2
06:09 10.7 °C 10.2 °C 1009.4 hPa Calm     97 % 0 mm 37 W/m2
06:14 10.8 °C 10.3 °C 1009.4 hPa Calm     97 % 0 mm 51 W/m2
06:19 10.8 °C 10.3 °C 1009.4 hPa Calm     97 % 0 mm 44 W/m2
06:24 10.9 °C 10.4 °C 1009.4 hPa Calm     97 % 0 mm 53 W/m2
06:29 11 °C 10.6 °C 1009.4 hPa Calm     97 % 0 mm 53 W/m2
06:34 11.1 °C 10.7 °C 1009.4 hPa Calm     97 % 0 mm 65 W/m2
06:39 11.4 °C 11.1 °C 1009.4 hPa NNE 1.6 km/h 9.7 km/h 98 % 0 mm 74 W/m2
06:44 11.7 °C 11.4 °C 1009.4 hPa North 4.8 km/h 11.3 km/h 98 % 0 mm 83 W/m2
06:49 11.9 °C 11.6 °C 1009.7 hPa North 3.2 km/h 11.3 km/h 98 % 0 mm 74 W/m2
06:54 12 °C 11.7 °C 1009.7 hPa North 1.6 km/h 9.7 km/h 98 % 0 mm 62 W/m2
06:59 12.1 °C 11.8 °C 1009.7 hPa North 3.2 km/h 8 km/h 98 % 0 mm 42 W/m2
07:04 12.1 °C 11.6 °C 1009.7 hPa North 4.8 km/h 12.9 km/h 97 % 0 mm 44 W/m2
07:09 12.1 °C 11.6 °C 1009.7 hPa NNE 4.8 km/h 12.9 km/h 97 % 0 mm 60 W/m2
07:14 12.1 °C 11.6 °C 1009.7 hPa North 6.4 km/h 12.9 km/h 97 % 0 mm 72 W/m2
07:19 12.2 °C 11.7 °C 1009.7 hPa North 8 km/h 12.9 km/h 97 % 0 mm 69 W/m2
07:24 12.2 °C 11.7 °C 1009.7 hPa North 6.4 km/h 12.9 km/h 97 % 0 mm 69 W/m2
07:29 12.2 °C 11.7 °C 1009.7 hPa NNE 6.4 km/h 12.9 km/h 97 % 0 mm 62 W/m2
07:34 12.2 °C 11.7 °C 1009.7 hPa NNE 6.4 km/h 12.9 km/h 97 % 0 mm 51 W/m2
07:39 12.2 °C 11.7 °C 1009.7 hPa North 8 km/h 14.5 km/h 97 % 0 mm 47 W/m2
07:44 12.2 °C 11.7 °C 1009.7 hPa North 8 km/h 14.5 km/h 97 % 0 mm 60 W/m2
07:49 12.3 °C 11.8 °C 1009.7 hPa North 6.4 km/h 12.9 km/h 97 % 0 mm 95 W/m2
07:54 12.3 °C 11.8 °C 1009.7 hPa North 4.8 km/h 11.3 km/h 97 % 0 mm 134 W/m2
07:59 12.4 °C 11.9 °C 1009.7 hPa North 6.4 km/h 12.9 km/h 97 % 0 mm 137 W/m2
08:04 12.5 °C 12.1 °C 1009.7 hPa North 6.4 km/h 12.9 km/h 97 % 0 mm 149 W/m2
08:09 12.5 °C 12.1 °C 1010 hPa North 6.4 km/h 12.9 km/h 97 % 0 mm 139 W/m2
08:14 12.6 °C 12.1 °C 1010 hPa North 4.8 km/h 11.3 km/h 97 % 0 mm 134 W/m2
08:19 12.7 °C 12.2 °C 1010 hPa North 4.8 km/h 11.3 km/h 97 % 0 mm 135 W/m2
08:25 12.8 °C 12.2 °C 1010 hPa North 3.2 km/h 11.3 km/h 96 % 0 mm 120 W/m2
08:30 12.8 °C 12.3 °C 1010 hPa NNW 3.2 km/h 11.3 km/h 97 % 0 mm 95 W/m2
08:35 12.9 °C 12.3 °C 1010 hPa NNW 1.6 km/h 8 km/h 96 % 0 mm 105 W/m2
08:40 12.9 °C 12.3 °C 1010 hPa NNW 1.6 km/h 8 km/h 96 % 0 mm 162 W/m2
08:41 12.9 °C 12.3 °C 1010 hPa NNW 1.6 km/h 8 km/h 96 % 0 mm 204 W/m2
08:46 13.1 °C 12.5 °C 1010 hPa NNW 1.6 km/h 6.4 km/h 96 % 0 mm 290 W/m2
08:51 13.3 °C 12.7 °C 1010 hPa NNW 1.6 km/h 9.7 km/h 96 % 0 mm 148 W/m2
08:56 13.4 °C 12.8 °C 1010 hPa NNW 4.8 km/h 9.7 km/h 96 % 0 mm 137 W/m2
09:01 13.5 °C 12.7 °C 1010 hPa NW 8 km/h 12.9 km/h 95 % 0 mm 137 W/m2
09:06 13.6 °C 12.8 °C 1010 hPa WNW 8 km/h 12.9 km/h 95 % 0 mm 232 W/m2
09:11 13.8 °C 13 °C 1010 hPa WNW 6.4 km/h 11.3 km/h 95 % 0 mm 487 W/m2
09:16 14.1 °C 13.3 °C 1010 hPa NW 3.2 km/h 9.7 km/h 95 % 0 mm 267 W/m2
09:21 14.3 °C 13.2 °C 1010 hPa NW 3.2 km/h 11.3 km/h 93 % 0 mm 383 W/m2
09:26 14.7 °C 13.6 °C 1010 hPa NW 4.8 km/h 11.3 km/h 93 % 0 mm 455 W/m2
09:32 15 °C 13.7 °C 1010 hPa WNW 6.4 km/h 16.1 km/h 92 % 0 mm 763 W/m2
09:36 15.3 °C 13.3 °C 1010 hPa NW 8 km/h 16.1 km/h 88 % 0 mm 679 W/m2
09:42 15.7 °C 13.4 °C 1010 hPa NW 4.8 km/h 12.9 km/h 86 % 0 mm 698 W/m2
09:47 16.1 °C 13.4 °C 1010 hPa WNW 4.8 km/h 12.9 km/h 84 % 0 mm 701 W/m2
09:52 16.4 °C 13.3 °C 1010 hPa WNW 6.4 km/h 14.5 km/h 82 % 0 mm 677 W/m2
09:57 16.6 °C 12.9 °C 1010 hPa NW 6.4 km/h 14.5 km/h 79 % 0 mm 163 W/m2
10:02 16.7 °C 13.1 °C 1010 hPa NW 8 km/h 14.5 km/h 79 % 0 mm 789 W/m2
10:07 16.7 °C 12.4 °C 1010 hPa NNW 8 km/h 16.1 km/h 76 % 0 mm 301 W/m2
10:12 16.7 °C 12.4 °C 1010 hPa NW 9.7 km/h 17.7 km/h 76 % 0 mm 478 W/m2
10:17 16.8 °C 12.6 °C 1010 hPa WNW 8 km/h 17.7 km/h 76 % 0 mm 775 W/m2
10:22 17 °C 12.7 °C 1010 hPa WNW 6.4 km/h 12.9 km/h 76 % 0 mm 172 W/m2
10:27 17.1 °C 12.8 °C 1010 hPa WNW 6.4 km/h 12.9 km/h 76 % 0 mm 872 W/m2
10:32 17.3 °C 12.8 °C 1010 hPa WNW 3.2 km/h 14.5 km/h 75 % 0 mm 951 W/m2
10:37 17.7 °C 12.8 °C 1010 hPa NW 6.4 km/h 17.7 km/h 73 % 0 mm 243 W/m2
10:42 17.7 °C 12.6 °C 1010 hPa NW 9.7 km/h 17.7 km/h 72 % 0 mm 230 W/m2
10:47 17.9 °C 12.6 °C 1010 hPa NW 8 km/h 14.5 km/h 71 % 0 mm 793 W/m2
10:52 18 °C 12.2 °C 1010 hPa NNW 6.4 km/h 14.5 km/h 69 % 0 mm 800 W/m2
10:57 18.2 °C 12.6 °C 1010 hPa NW 8 km/h 16.1 km/h 70 % 0 mm 821 W/m2
11:02 18.3 °C 12.7 °C 1010 hPa WNW 11.3 km/h 16.1 km/h 70 % 0 mm 874 W/m2
11:07 18.3 °C 11.8 °C 1010 hPa West 9.7 km/h 16.1 km/h 66 % 0 mm 281 W/m2
11:12 18.3 °C 12.1 °C 1010 hPa West 8 km/h 14.5 km/h 67 % 0 mm 239 W/m2
11:17 18.3 °C 12.3 °C 1010 hPa West 6.4 km/h 17.7 km/h 68 % 0 mm 1083 W/m2
11:22 18.5 °C 12.3 °C 1010 hPa WNW 8 km/h 17.7 km/h 67 % 0 mm 334 W/m2
11:27 18.7 °C 12.4 °C 1010 hPa NW 9.7 km/h 16.1 km/h 67 % 0 mm 554 W/m2
11:32 18.7 °C 11.7 °C 1010 hPa NW 11.3 km/h 19.3 km/h 64 % 0 mm 459 W/m2
11:37 18.7 °C 12 °C 1010 hPa NW 9.7 km/h 19.3 km/h 65 % 0 mm 334 W/m2
11:42 18.7 °C 12 °C 1010 hPa NNW 6.4 km/h 16.1 km/h 65 % 0 mm 267 W/m2
11:47 18.6 °C 11.9 °C 1010 hPa NNW 8 km/h 17.7 km/h 65 % 0 mm 301 W/m2
11:52 18.4 °C 11.9 °C 1010.4 hPa NW 9.7 km/h 19.3 km/h 66 % 0 mm 336 W/m2
11:57 18.4 °C 11.9 °C 1010.4 hPa NW 8 km/h 19.3 km/h 66 % 0 mm 362 W/m2
12:02 18.5 °C 12.3 °C 1010.4 hPa NW 6.4 km/h 14.5 km/h 67 % 0 mm 401 W/m2
12:07 18.6 °C 12.1 °C 1010 hPa NW 9.7 km/h 17.7 km/h 66 % 0 mm 383 W/m2
12:12 18.6 °C 11.9 °C 1010 hPa NW 9.7 km/h 17.7 km/h 65 % 0 mm 513 W/m2
12:17 18.8 °C 12.6 °C 1010 hPa NW 9.7 km/h 19.3 km/h 67 % 0 mm 469 W/m2
12:22 18.9 °C 11.9 °C 1010.4 hPa WNW 11.3 km/h 22.5 km/h 64 % 0 mm 302 W/m2
12:27 18.8 °C 12.3 °C 1010.4 hPa WNW 14.5 km/h 22.5 km/h 66 % 0 mm 302 W/m2
12:32 18.7 °C 12 °C 1010 hPa WNW 12.9 km/h 22.5 km/h 65 % 0 mm 265 W/m2
12:37 18.6 °C 11.9 °C 1010.4 hPa WNW 11.3 km/h 19.3 km/h 65 % 0 mm 283 W/m2
12:42 18.5 °C 12 °C 1010.4 hPa WNW 11.3 km/h 17.7 km/h 66 % 0 mm 276 W/m2
12:47 18.5 °C 11.8 °C 1010 hPa NW 9.7 km/h 17.7 km/h 65 % 0 mm 272 W/m2
12:52 18.4 °C 11.9 °C 1010.4 hPa NW 9.7 km/h 17.7 km/h 66 % 0 mm 329 W/m2
12:57 18.5 °C 12.3 °C 1010 hPa NW 8 km/h 16.1 km/h 67 % 0 mm 367 W/m2
13:02 18.6 °C 12.3 °C 1010 hPa NW 9.7 km/h 16.1 km/h 67 % 0 mm 422 W/m2
13:07 18.7 °C 12.2 °C 1010 hPa WNW 9.7 km/h 19.3 km/h 66 % 0 mm 439 W/m2
13:13 18.9 °C 12.4 °C 1010 hPa WNW 9.7 km/h 19.3 km/h 66 % 0 mm 619 W/m2
13:18 19.1 °C 12.4 °C 1010 hPa NW 11.3 km/h 17.7 km/h 65 % 0 mm 860 W/m2
13:23 19.4 °C 12.2 °C 1010 hPa WNW 11.3 km/h 17.7 km/h 63 % 0 mm 842 W/m2
13:28 19.8 °C 12.6 °C 1010 hPa WNW 11.3 km/h 19.3 km/h 63 % 0 mm 958 W/m2
13:33 19.9 °C 12.4 °C 1010 hPa NW 8 km/h 19.3 km/h 62 % 0 mm 174 W/m2
13:38 19.8 °C 13.1 °C 1010.4 hPa NW 8 km/h 19.3 km/h 65 % 0 mm 113 W/m2
13:43 19.4 °C 13.1 °C 1010.4 hPa NW 9.7 km/h 19.3 km/h 67 % 0 mm 120 W/m2
13:48 19.1 °C 13.1 °C 1010.4 hPa NW 8 km/h 16.1 km/h 68 % 0 mm 155 W/m2
13:53 18.8 °C 12.8 °C 1010.4 hPa WNW 8 km/h 14.5 km/h 68 % 0 mm 183 W/m2
13:58 18.7 °C 12.7 °C 1010.4 hPa WNW 8 km/h 14.5 km/h 68 % 0 mm 227 W/m2
14:03 18.7 °C 12.7 °C 1010 hPa WNW 6.4 km/h 12.9 km/h 68 % 0 mm 269 W/m2
14:08 18.7 °C 12.4 °C 1010.4 hPa WNW 6.4 km/h 11.3 km/h 67 % 0 mm 408 W/m2
14:13 19 °C 12.7 °C 1010 hPa NW 6.4 km/h 12.9 km/h 67 % 0 mm 1085 W/m2
14:18 19.4 °C 12.4 °C 1010 hPa WNW 8 km/h 14.5 km/h 64 % 0 mm 503 W/m2
14:23 19.8 °C 12.3 °C 1010 hPa WNW 9.7 km/h 16.1 km/h 62 % 0 mm 1114 W/m2
14:28 20.3 °C 12.8 °C 1010 hPa WNW 6.4 km/h 16.1 km/h 62 % 0 mm 388 W/m2
14:33 20.4 °C 12.6 °C 1010 hPa NNW 6.4 km/h 14.5 km/h 61 % 0 mm 169 W/m2
14:38 20.3 °C 12.3 °C 1010 hPa NW 9.7 km/h 20.9 km/h 60 % 0 mm 72 W/m2
14:43 20.1 °C 12.1 °C 1010 hPa NW 9.7 km/h 20.9 km/h 60 % 0 mm 67 W/m2
14:48 19.8 °C 12.3 °C 1010 hPa NW 9.7 km/h 22.5 km/h 62 % 0 mm 76 W/m2
14:53 19.6 °C 12.4 °C 1010.4 hPa NW 11.3 km/h 22.5 km/h 63 % 0 mm 102 W/m2
14:58 19.3 °C 12.3 °C 1010.4 hPa NW 9.7 km/h 17.7 km/h 64 % 0 mm 148 W/m2
15:03 19.2 °C 12.4 °C 1010 hPa NW 9.7 km/h 16.1 km/h 65 % 0 mm 206 W/m2
15:08 19.1 °C 12.1 °C 1010 hPa WNW 9.7 km/h 17.7 km/h 64 % 0 mm 306 W/m2
15:13 19.1 °C 11.9 °C 1010 hPa WNW 12.9 km/h 20.9 km/h 63 % 0 mm 355 W/m2
15:18 19.3 °C 12.3 °C 1010 hPa NW 11.3 km/h 20.9 km/h 64 % 0 mm 925 W/m2
15:23 19.7 °C 11.9 °C 1010 hPa WNW 9.7 km/h 17.7 km/h 61 % 0 mm 796 W/m2
15:28 20.3 °C 12 °C 1009.7 hPa West 11.3 km/h 22.5 km/h 59 % 0 mm 780 W/m2
15:33 20.6 °C 12.1 °C 1009.7 hPa WNW 9.7 km/h 22.5 km/h 58 % 0 mm 227 W/m2
15:38 20.6 °C 12.1 °C 1009.7 hPa WNW 9.7 km/h 22.5 km/h 58 % 0 mm 178 W/m2
15:43 20.4 °C 12.1 °C 1009.7 hPa WNW 12.9 km/h 25.7 km/h 59 % 0 mm 243 W/m2
15:48 20.2 °C 12.2 °C 1010 hPa WNW 14.5 km/h 25.7 km/h 60 % 0 mm 294 W/m2
15:53 20.1 °C 12.6 °C 1009.7 hPa WNW 12.9 km/h 25.7 km/h 62 % 0 mm 295 W/m2
15:58 20.1 °C 12.6 °C 1009.7 hPa WNW 11.3 km/h 19.3 km/h 62 % 0 mm 244 W/m2
16:03 20.1 °C 12.6 °C 1009.7 hPa WNW 9.7 km/h 17.7 km/h 62 % 0 mm 207 W/m2
16:08 19.9 °C 11.9 °C 1009.7 hPa NW 11.3 km/h 22.5 km/h 60 % 0 mm 183 W/m2
16:13 19.6 °C 11.6 °C 1009.7 hPa NNW 14.5 km/h 22.5 km/h 60 % 0 mm 183 W/m2
16:18 19.4 °C 12.2 °C 1009.7 hPa NW 14.5 km/h 22.5 km/h 63 % 0 mm 214 W/m2
16:23 19.3 °C 12.6 °C 1009.7 hPa NW 14.5 km/h 22.5 km/h 65 % 0 mm 181 W/m2
16:28 19.2 °C 12.4 °C 1010 hPa NW 12.9 km/h 20.9 km/h 65 % 0 mm 214 W/m2
16:33 19.1 °C 12.6 °C 1010 hPa NW 11.3 km/h 20.9 km/h 66 % 0 mm 223 W/m2
16:38 19.2 °C 12.4 °C 1009.7 hPa NW 9.7 km/h 19.3 km/h 65 % 0 mm 243 W/m2
16:43 19.3 °C 12.8 °C 1009.7 hPa WNW 9.7 km/h 20.9 km/h 66 % 0 mm 244 W/m2
16:48 19.3 °C 12.6 °C 1009.7 hPa WNW 9.7 km/h 20.9 km/h 65 % 0 mm 172 W/m2
16:53 19.4 °C 12.4 °C 1009.7 hPa NW 9.7 km/h 20.9 km/h 64 % 0 mm 165 W/m2
16:58 19.4 °C 12.4 °C 1009.7 hPa NW 9.7 km/h 20.9 km/h 64 % 0 mm 186 W/m2
17:03 19.3 °C 12.3 °C 1009.7 hPa NW 9.7 km/h 19.3 km/h 64 % 0 mm 174 W/m2
17:08 19.4 °C 12.4 °C 1009.7 hPa WNW 11.3 km/h 19.3 km/h 64 % 0 mm 160 W/m2
17:13 19.4 °C 12.7 °C 1009.7 hPa WNW 11.3 km/h 19.3 km/h 65 % 0 mm 151 W/m2
17:18 19.3 °C 12.8 °C 1009.7 hPa WNW 12.9 km/h 24.1 km/h 66 % 0 mm 135 W/m2
17:23 19.2 °C 12.7 °C 1010 hPa WNW 12.9 km/h 24.1 km/h 66 % 0 mm 114 W/m2
17:28 19.1 °C 12.6 °C 1010 hPa WNW 12.9 km/h 25.7 km/h 66 % 0 mm 97 W/m2
17:33 18.9 °C 12.2 °C 1010 hPa WNW 14.5 km/h 32.2 km/h 65 % 0 mm 81 W/m2
17:38 18.7 °C 12.2 °C 1010 hPa WNW 16.1 km/h 32.2 km/h 66 % 0 mm 65 W/m2
17:39 18.7 °C 12.2 °C 1010 hPa WNW 14.5 km/h 29 km/h 66 % 0 mm 62 W/m2
17:44 18.6 °C 12.6 °C 1010 hPa NW 12.9 km/h 24.1 km/h 68 % 0 mm 46 W/m2
17:49 18.4 °C 13.3 °C 1010 hPa NW 12.9 km/h 29 km/h 72 % 0 mm 47 W/m2
17:54 18 °C 13.3 °C 1010 hPa NW 14.5 km/h 29 km/h 74 % 0.25 mm 54 W/m2
17:59 17.5 °C 13.6 °C 1010 hPa NW 12.9 km/h 24.1 km/h 78 % 0.25 mm 58 W/m2
18:00 17.4 °C 13.5 °C 1010 hPa NW 12.9 km/h 24.1 km/h 78 % 0.25 mm 60 W/m2
18:05 17.1 °C 13.8 °C 1010 hPa NW 9.7 km/h 19.3 km/h 81 % 0.25 mm 65 W/m2
18:10 16.8 °C 13.9 °C 1010 hPa NW 9.7 km/h 16.1 km/h 83 % 0.51 mm 69 W/m2
18:15 16.6 °C 13.9 °C 1010 hPa NW 9.7 km/h 16.1 km/h 84 % 0.51 mm 70 W/m2
18:20 16.4 °C 13.9 °C 1010 hPa NW 8 km/h 14.5 km/h 85 % 0.51 mm 72 W/m2
18:25 16.3 °C 13.8 °C 1010 hPa NW 6.4 km/h 12.9 km/h 85 % 0.51 mm 77 W/m2
18:30 16.3 °C 13.9 °C 1010 hPa NW 6.4 km/h 14.5 km/h 86 % 0.51 mm 86 W/m2
18:35 16.2 °C 13.5 °C 1010.4 hPa NW 9.7 km/h 24.1 km/h 84 % 0.51 mm 83 W/m2
18:40 16.2 °C 13.5 °C 1010.4 hPa NW 11.3 km/h 24.1 km/h 84 % 0.51 mm 77 W/m2
18:45 16.2 °C 13.5 °C 1010.4 hPa NW 11.3 km/h 22.5 km/h 84 % 0.51 mm 79 W/m2
18:50 16.1 °C 13 °C 1010.4 hPa WNW 14.5 km/h 35.4 km/h 82 % 0.51 mm 74 W/m2
18:55 16 °C 12.9 °C 1010.4 hPa WNW 16.1 km/h 35.4 km/h 82 % 0.25 mm 65 W/m2
19:00 15.9 °C 13 °C 1010.4 hPa WNW 12.9 km/h 30.6 km/h 83 % 0.25 mm 54 W/m2
19:05 15.8 °C 13.1 °C 1010.4 hPa NW 12.9 km/h 22.5 km/h 84 % 0.25 mm 47 W/m2
19:10 15.7 °C 13 °C 1010.4 hPa NW 11.3 km/h 22.5 km/h 84 % 0 mm 44 W/m2
19:15 15.6 °C 13.1 °C 1010.4 hPa WNW 11.3 km/h 22.5 km/h 85 % 0 mm 35 W/m2
19:20 15.6 °C 13.3 °C 1010.4 hPa WNW 12.9 km/h 20.9 km/h 86 % 0 mm 37 W/m2
19:25 15.4 °C 13.2 °C 1010.4 hPa WNW 14.5 km/h 24.1 km/h 87 % 0 mm 44 W/m2
19:30 15.3 °C 13.2 °C 1010.4 hPa WNW 14.5 km/h 24.1 km/h 87 % 0.25 mm 47 W/m2
19:35 15.2 °C 13.2 °C 1010.4 hPa WNW 12.9 km/h 20.9 km/h 88 % 0.25 mm 46 W/m2
19:41 15.1 °C 13.1 °C 1010 hPa WNW 12.9 km/h 20.9 km/h 88 % 0.25 mm 39 W/m2
19:46 15 °C 13.2 °C 1010 hPa WNW 12.9 km/h 19.3 km/h 89 % 0.51 mm 32 W/m2
19:51 14.9 °C 13.1 °C 1010 hPa WNW 11.3 km/h 19.3 km/h 89 % 0.51 mm 26 W/m2
19:56 14.8 °C 13 °C 1010 hPa WNW 11.3 km/h 19.3 km/h 89 % 0.51 mm 25 W/m2
20:01 14.8 °C 13.2 °C 1010 hPa WNW 11.3 km/h 17.7 km/h 90 % 0.51 mm 25 W/m2
20:06 14.7 °C 13.1 °C 1010 hPa WNW 11.3 km/h 20.9 km/h 90 % 0.51 mm 23 W/m2
20:11 14.7 °C 13.2 °C 1010 hPa WNW 12.9 km/h 20.9 km/h 91 % 0.51 mm 19 W/m2
20:16 14.7 °C 13.2 °C 1010 hPa WNW 11.3 km/h 19.3 km/h 91 % 0.51 mm 18 W/m2
20:21 14.6 °C 13.2 °C 1010 hPa WNW 11.3 km/h 17.7 km/h 91 % 0.76 mm 19 W/m2
20:26 14.6 °C 13.3 °C 1010 hPa WNW 11.3 km/h 17.7 km/h 92 % 0.76 mm 18 W/m2
20:31 14.6 °C 13.3 °C 1010 hPa WNW 11.3 km/h 17.7 km/h 92 % 0.51 mm 14 W/m2
20:36 14.6 °C 13.3 °C 1010 hPa WNW 9.7 km/h 17.7 km/h 92 % 0.76 mm 9 W/m2
20:41 14.6 °C 13.3 °C 1009.7 hPa WNW 9.7 km/h 17.7 km/h 92 % 0.76 mm 7 W/m2
20:46 14.6 °C 13.3 °C 1009.7 hPa WNW 9.7 km/h 17.7 km/h 92 % 0.51 mm 7 W/m2
20:51 14.7 °C 13.4 °C 1009.7 hPa WNW 9.7 km/h 19.3 km/h 92 % 0.51 mm 7 W/m2
20:56 14.7 °C 13.6 °C 1009.7 hPa WNW 9.7 km/h 19.3 km/h 93 % 0.51 mm 5 W/m2
21:01 14.7 °C 13.6 °C 1009.7 hPa WNW 11.3 km/h 17.7 km/h 93 % 0.51 mm 0 W/m2
21:06 14.7 °C 13.6 °C 1009.7 hPa WNW 11.3 km/h 17.7 km/h 93 % 0.51 mm 0 W/m2
21:11 14.7 °C 13.6 °C 1009.7 hPa WNW 12.9 km/h 22.5 km/h 93 % 0.51 mm 0 W/m2
21:16 14.7 °C 13.6 °C 1009.4 hPa WNW 16.1 km/h 25.7 km/h 93 % 0.51 mm 0 W/m2
21:21 14.7 °C 13.6 °C 1009.4 hPa WNW 16.1 km/h 25.7 km/h 93 % 0.51 mm 0 W/m2
21:22 14.7 °C 13.6 °C 1009.7 hPa WNW 16.1 km/h 24.1 km/h 93 % 0.51 mm 0 W/m2
21:27 14.8 °C 13.7 °C 1009.4 hPa WNW 14.5 km/h 24.1 km/h 93 % 0.51 mm 0 W/m2
21:32 14.8 °C 13.7 °C 1009.7 hPa WNW 14.5 km/h 22.5 km/h 93 % 0.51 mm 0 W/m2
21:37 14.8 °C 13.7 °C 1009.7 hPa WNW 14.5 km/h 22.5 km/h 93 % 0.25 mm 0 W/m2
21:43 14.8 °C 13.7 °C 1009.7 hPa WNW 14.5 km/h 25.7 km/h 93 % 0.25 mm 0 W/m2
21:48 14.8 °C 13.7 °C 1009.4 hPa WNW 12.9 km/h 25.7 km/h 93 % 0.25 mm 0 W/m2
21:52 14.9 °C 13.8 °C 1009.7 hPa WNW 12.9 km/h 24.1 km/h 93 % 0.25 mm 0 W/m2
21:58 14.9 °C 13.8 °C 1009.7 hPa WNW 14.5 km/h 24.1 km/h 93 % 0.25 mm 0 W/m2
21:59 14.9 °C 13.8 °C 1009.7 hPa WNW 12.9 km/h 24.1 km/h 93 % 0.25 mm 0 W/m2
22:04 14.9 °C 13.8 °C 1009.7 hPa WNW 12.9 km/h 20.9 km/h 93 % 0.25 mm 0 W/m2
22:09 14.9 °C 13.8 °C 1009.7 hPa WNW 14.5 km/h 25.7 km/h 93 % 0.25 mm 0 W/m2
22:11 14.9 °C 13.8 °C 1009.7 hPa WNW 14.5 km/h 25.7 km/h 93 % 0.25 mm 0 W/m2
22:16 14.9 °C 13.9 °C 1009.7 hPa WNW 14.5 km/h 24.1 km/h 94 % 0 mm 0 W/m2
22:21 14.9 °C 13.9 °C 1009.7 hPa WNW 12.9 km/h 24.1 km/h 94 % 0.25 mm 0 W/m2
22:26 14.9 °C 13.9 °C 1009.7 hPa WNW 11.3 km/h 22.5 km/h 94 % 0.25 mm 0 W/m2
22:31 14.9 °C 13.9 °C 1009.7 hPa WNW 12.9 km/h 22.5 km/h 94 % 0.51 mm 0 W/m2
22:36 14.9 °C 13.9 °C 1009.7 hPa WNW 12.9 km/h 22.5 km/h 94 % 0.51 mm 0 W/m2
22:41 14.9 °C 13.9 °C 1009.7 hPa NW 11.3 km/h 22.5 km/h 94 % 0.51 mm 0 W/m2
22:46 14.9 °C 13.9 °C 1009.7 hPa NW 11.3 km/h 20.9 km/h 94 % 0.51 mm 0 W/m2
22:51 14.9 °C 13.9 °C 1009.7 hPa NW 8 km/h 16.1 km/h 94 % 0.51 mm 0 W/m2
22:56 14.9 °C 13.9 °C 1009.7 hPa NW 9.7 km/h 22.5 km/h 94 % 0.51 mm 0 W/m2
23:01 14.9 °C 14.1 °C 1009.7 hPa NW 11.3 km/h 22.5 km/h 95 % 0.51 mm 0 W/m2
23:06 14.9 °C 14.1 °C 1009.7 hPa NW 12.9 km/h 24.1 km/h 95 % 0.51 mm 0 W/m2
23:11 14.9 °C 14.1 °C 1009.7 hPa NW 14.5 km/h 30.6 km/h 95 % 0.51 mm 0 W/m2
23:16 14.9 °C 14.1 °C 1009.7 hPa NNW 14.5 km/h 30.6 km/h 95 % 0.51 mm 0 W/m2
23:21 14.9 °C 14.1 °C 1010 hPa NNW 12.9 km/h 24.1 km/h 95 % 0.51 mm 0 W/m2
23:26 14.9 °C 14.1 °C 1010 hPa NNW 11.3 km/h 24.1 km/h 95 % 0.51 mm 0 W/m2
23:31 14.9 °C 14.1 °C 1010 hPa NNW 9.7 km/h 24.1 km/h 95 % 0.51 mm 0 W/m2
23:36 14.8 °C 14 °C 1010 hPa NNW 11.3 km/h 24.1 km/h 95 % 0.51 mm 0 W/m2
23:41 14.8 °C 14 °C 1010 hPa NNW 11.3 km/h 24.1 km/h 95 % 0.51 mm 0 W/m2
23:46 14.8 °C 14 °C 1010 hPa NNW 11.3 km/h 25.7 km/h 95 % 0.25 mm 0 W/m2
23:51 14.7 °C 13.9 °C 1010 hPa NNW 12.9 km/h 25.7 km/h 95 % 0.25 mm 0 W/m2
23:56 14.7 °C 13.9 °C 1010 hPa NNW 12.9 km/h 24.1 km/h 95 % 0.51 mm 0 W/m2
Delerius-Weather
Compliments of Weather Underground - 2.25 mb

Data updates at regular intervals.